Terminal Aerodrome Forecast
Issued by NWS

Home | Current Version | Previous Version | Graphics & Text | Print | Product List | Glossary On
Versions: 1 2 3 4 5 6 7 8 9 10 11 12 13 14 15
000
FTUS43 KMPX 200302 AAA
TAFAXN
TAF AMD
KAXN 200302Z 2003/2024 14020G30KT P6SM SCT030 BKN070 WS020/16050KT
     FM200400 15018G25KT 4SM -TSRA BR OVC025CB WS020/17050KT
      TEMPO 2004/2008 2SM TSRA OVC015CB
     FM200800 24011KT 6SM -SHRA BR VCTS OVC025CB
     FM201000 26009KT P6SM VCSH OVC025
     FM201200 27013G20KT P6SM BKN040
     FM202300 21008KT P6SM SKC=

USA.gov is the U.S. government's official web portal to all federal, state and local government web resources and services.